Sheregesh, Russia
Current Conditions -  °F | °C
As of 3:00 AM on Friday 30 Jan 2015 (Local Time) from UNAA Reporting Station
Haze Haze  
Wind Chill: -2°   Ceiling: 20000
Heat Index: -2°   Visibility: 1.2mi
Dew Point: -8°   Wind: 0mph
Humidity: 78%   Direction: NA
Pressure: 30.45"   Gusts: NA
Location:  52.95°N, 88.03°E
Report Text: UNAA 292000Z 00000MPS 2000 BR BKN200 M19/M22 Q1031 NOSIG RMKQFE750 20190055
Loading
Personal Weather Stations






























Interactive Weather Map New forecast layout! Learn more

10-Day Weather Forecast

Advertisements
Track Severe Weather on mobile